Terminal Aerodrome Forecast
Issued by NWS

Home | Current Version | Previous Version | Text Only | Print | Product List | Glossary On
Versions: 1 2 3 4 5 6 7 8 9 10 11 12
652
FTUS46 KSEW 230520
TAFBLI
TAF
KBLI 230520Z 2306/2406 16005KT P6SM SCT070 BKN200
     FM231800 36004KT P6SM SCT070 BKN200=

USA.gov is the U.S. government's official web portal to all federal, state and local government web resources and services.